Список аэропортов
Фактическая погода:

26 апреля, 11:50
Температура: +10°C (+6.9*)
Ветер: западный 7 м/с
Давление: *748 мм
неб. облачность
960 м
Время (МСК)Темп. СВетерВлажностьДавлениеОблачностьОсадки
09:00+7З, 1 м/с74%996 гПамалооблачно
10:00+10З, 3 м/с57%996 гПаясно
11:00+11З, 3 м/с52%997 гПас прояснениями
12:00+10З, 3 м/с56%997 гПаоблачносл. дождь
13:00+10З, 3 м/с73%998 гПаоблачнодождь
14:00+10З, 3 м/с72%998 гПамалооблачносл. дождь
15:00+11З, 3 м/с65%998 гПас прояснениямидождь
16:00+10З, 4 м/с66%998 гПаоблачнодождь
17:00+10З, 3 м/с75%999 гПаоблачнодождь
18:00+9З, 3 м/с68%999 гПамалооблачно
19:00+10З, 4 м/с49%999 гПаясно
20:00+9З, 3 м/с50%1000 гПаясно
21:00+7З, 3 м/с56%1000 гПаясно
22:00+5ЮЗ, 2 м/с64%1001 гПаясно
23:00+4З, 2 м/с67%1001 гПаясно
27 апреля
00:00+2З, 2 м/с75%1001 гПаясно
01:00+1З, 2 м/с88%1002 гПаясно
02:000ЮЗ, 2 м/с93%1002 гПамалооблачно
03:000З, 2 м/с91%1003 гПас прояснениями
04:000З, 2 м/с86%1003 гПаоблачно
05:000З, 2 м/с87%1003 гПас прояснениями
06:000З, 2 м/с87%1003 гПаоблачно
07:00+1З, 1 м/с82%1004 гПас прояснениями
08:00+3З, 2 м/с70%1004 гПас прояснениями
09:00+5З, 2 м/с62%1004 гПас прояснениями
10:00+8З, 3 м/с55%1005 гПас прояснениями
11:00+8З, 3 м/с54%1005 гПаоблачно
12:00+8З, 3 м/с61%1006 гПаоблачносл. дождь
13:00+11ЮЗ, 3 м/с52%1006 гПаоблачносл. дождь
14:00+12ЮЗ, 3 м/с49%1006 гПаоблачно
15:00+12ЮЗ, 3 м/с53%1006 гПас прояснениямисл. дождь
16:00+12ЮЗ, 3 м/с57%1007 гПас прояснениямисл. дождь
17:00+12ЮЗ, 3 м/с60%1007 гПас прояснениямисл. дождь
18:00+11З, 3 м/с63%1007 гПас прояснениямисл. дождь
19:00+11З, 2 м/с60%1008 гПамалооблачно
20:00+10З, 2 м/с64%1008 гПамалооблачно
21:00+8ЮЗ, 2 м/с73%1009 гПаясно
22:00+6ЮЗ, 2 м/с81%1010 гПаясно
23:00+5З, 2 м/с86%1010 гПаясно
28 апреля
00:00+4З, 2 м/с94%1010 гПаясно
01:00+3З, 2 м/с98%1011 гПамалооблачно
02:00+2З, 2 м/с99%1011 гПамалооблачно
03:00+2З, 2 м/с99%1012 гПаоблачно
04:00+1З, 1 м/с99%1012 гПаоблачно
05:00+1З, 1 м/с100%1013 гПаоблачно
06:000З, 1 м/с100%1013 гПаоблачно
07:00+1З, 1 м/с99%1014 гПаоблачно
08:00+3ЮЗ, 1 м/с93%1014 гПаясно
09:00+6Ю, 1 м/с84%1014 гПаясно